Aviation Digital Data Service (ADDS)

Output produced by METARs form (0825 UTC 24 July 2014)
found at http://aviationweather.gov/adds/metars/
 
KLFT 240520Z 2406/2506 VRB03KT P6SM SCT050 SCT150 
     FM241600 35005KT P6SM SCT030 BKN150 
     FM250000 23003KT P6SM SCT035 BKN080 BKN150